KWRL/WRL METAR and TAF weather

Enter ICAO airport designator
Station Type Date Time Source
KWRL METAR 2021/01/16 02:53 UTC NOAA

KWRL 160253Z AUTO 02006KT 10SM CLR M02/M11 A3007 RMK AO2 SLP240 T10221106 56010


Station Type Date Time Source
KWRL Decoded METAR 2021/01/16 02:53 UTC NOAA

WORLAND MUNICIPAL AIRPORT, WY, United States (KWRL) 43-58N 107-57W 1271M
Jan 15, 2021 - 09:53 PM EST / 2021.01.16 0253 UTC
Wind: from the NNE (020 degrees) at 7 MPH (6 KT):0
Visibility: 10 mile(s):0
Sky conditions: clear
Temperature: 28.0 F (-2.2 C)
Windchill: 21 F (-6 C):1
Dew Point: 12.9 F (-10.6 C)
Relative Humidity: 52%
Pressure (altimeter): 30.07 in. Hg (1018 hPa)
Pressure tendency: 0.03 inches (1.0 hPa) lower than three hours ago
ob: KWRL 160253Z AUTO 02006KT 10SM CLR M02/M11 A3007 RMK AO2 SLP240 T10221106 56010
cycle: 3

Station Type Date Time Source
KWRL TAF 2021/01/15 18:27 UTC NOAA

TAF KWRL 151724Z 1518/1618 VRB06KT P6SM SCT200
FM160400 VRB05KT P6SM VCSH SCT070 BKN120
FM161100 VRB05KT P6SM SCT200

Example: see airport list